sensor_id;sensor_type;location;lat;lon;timestamp;P1;durP1;ratioP1;P2;durP2;ratioP2
51810;SDS011;52468;40.116;18.296;2024-03-08T00:00:11;12.77;;;7.40;;
51810;SDS011;52468;40.116;18.296;2024-03-08T00:02:40;13.83;;;7.63;;
51810;SDS011;52468;40.116;18.296;2024-03-08T00:05:09;12.30;;;7.07;;
51810;SDS011;52468;40.116;18.296;2024-03-08T00:07:41;10.30;;;6.80;;
51810;SDS011;52468;40.116;18.296;2024-03-08T00:10:10;9.60;;;7.20;;
51810;SDS011;52468;40.116;18.296;2024-03-08T00:12:39;9.30;;;7.43;;
51810;SDS011;52468;40.116;18.296;2024-03-08T00:15:11;13.50;;;8.70;;
51810;SDS011;52468;40.116;18.296;2024-03-08T00:17:44;17.45;;;9.13;;
51810;SDS011;52468;40.116;18.296;2024-03-08T00:20:13;12.17;;;8.40;;
51810;SDS011;52468;40.116;18.296;2024-03-08T00:22:41;11.80;;;8.53;;
51810;SDS011;52468;40.116;18.296;2024-03-08T00:25:10;12.97;;;8.67;;
51810;SDS011;52468;40.116;18.296;2024-03-08T00:27:42;14.20;;;9.27;;
51810;SDS011;52468;40.116;18.296;2024-03-08T00:30:10;13.40;;;8.87;;
51810;SDS011;52468;40.116;18.296;2024-03-08T00:32:40;16.90;;;9.07;;
51810;SDS011;52468;40.116;18.296;2024-03-08T00:35:08;15.87;;;10.30;;
51810;SDS011;52468;40.116;18.296;2024-03-08T00:37:36;16.80;;;9.40;;
51810;SDS011;52468;40.116;18.296;2024-03-08T00:40:04;26.00;;;12.97;;
51810;SDS011;52468;40.116;18.296;2024-03-08T00:42:34;19.03;;;12.43;;
51810;SDS011;52468;40.116;18.296;2024-03-08T00:45:02;22.03;;;13.47;;
51810;SDS011;52468;40.116;18.296;2024-03-08T00:47:30;19.70;;;14.63;;
51810;SDS011;52468;40.116;18.296;2024-03-08T00:49:58;24.10;;;13.90;;
51810;SDS011;52468;40.116;18.296;2024-03-08T00:52:26;29.30;;;14.60;;
51810;SDS011;52468;40.116;18.296;2024-03-08T00:54:54;21.40;;;13.83;;
51810;SDS011;52468;40.116;18.296;2024-03-08T00:57:22;22.50;;;13.30;;
51810;SDS011;52468;40.116;18.296;2024-03-08T00:59:50;29.30;;;15.47;;
51810;SDS011;52468;40.116;18.296;2024-03-08T01:02:20;23.27;;;14.10;;
51810;SDS011;52468;40.116;18.296;2024-03-08T01:04:48;23.23;;;14.57;;
51810;SDS011;52468;40.116;18.296;2024-03-08T01:07:17;25.80;;;15.83;;
51810;SDS011;52468;40.116;18.296;2024-03-08T01:09:45;25.60;;;15.80;;
51810;SDS011;52468;40.116;18.296;2024-03-08T01:12:13;28.63;;;16.10;;
51810;SDS011;52468;40.116;18.296;2024-03-08T01:14:41;21.63;;;15.57;;
51810;SDS011;52468;40.116;18.296;2024-03-08T01:17:09;27.93;;;16.80;;
51810;SDS011;52468;40.116;18.296;2024-03-08T01:19:37;24.93;;;15.43;;
51810;SDS011;52468;40.116;18.296;2024-03-08T01:22:05;23.97;;;15.17;;
51810;SDS011;52468;40.116;18.296;2024-03-08T01:24:34;23.90;;;15.07;;
51810;SDS011;52468;40.116;18.296;2024-03-08T01:27:02;22.90;;;14.70;;
51810;SDS011;52468;40.116;18.296;2024-03-08T01:29:30;24.40;;;15.70;;
51810;SDS011;52468;40.116;18.296;2024-03-08T01:31:59;21.50;;;14.87;;
51810;SDS011;52468;40.116;18.296;2024-03-08T01:34:29;23.33;;;15.20;;
51810;SDS011;52468;40.116;18.296;2024-03-08T01:36:57;27.33;;;14.60;;
51810;SDS011;52468;40.116;18.296;2024-03-08T01:39:25;25.30;;;14.17;;
51810;SDS011;52468;40.116;18.296;2024-03-08T01:41:53;19.63;;;13.80;;
51810;SDS011;52468;40.116;18.296;2024-03-08T01:44:21;24.00;;;14.57;;
51810;SDS011;52468;40.116;18.296;2024-03-08T01:46:49;21.37;;;13.53;;
51810;SDS011;52468;40.116;18.296;2024-03-08T01:49:20;23.30;;;15.77;;
51810;SDS011;52468;40.116;18.296;2024-03-08T01:51:49;28.87;;;18.20;;
51810;SDS011;52468;40.116;18.296;2024-03-08T01:54:18;25.13;;;16.93;;
51810;SDS011;52468;40.116;18.296;2024-03-08T01:56:47;25.97;;;17.47;;
51810;SDS011;52468;40.116;18.296;2024-03-08T01:59:15;30.53;;;17.63;;
51810;SDS011;52468;40.116;18.296;2024-03-08T02:01:44;23.30;;;15.67;;
51810;SDS011;52468;40.116;18.296;2024-03-08T02:04:12;26.93;;;17.03;;
51810;SDS011;52468;40.116;18.296;2024-03-08T02:06:40;29.63;;;16.80;;
51810;SDS011;52468;40.116;18.296;2024-03-08T02:09:08;24.17;;;14.73;;
51810;SDS011;52468;40.116;18.296;2024-03-08T02:11:37;26.93;;;17.50;;
51810;SDS011;52468;40.116;18.296;2024-03-08T02:14:07;24.90;;;18.07;;
51810;SDS011;52468;40.116;18.296;2024-03-08T02:16:35;28.20;;;18.83;;
51810;SDS011;52468;40.116;18.296;2024-03-08T02:19:03;30.10;;;18.27;;
51810;SDS011;52468;40.116;18.296;2024-03-08T02:21:31;33.70;;;20.33;;
51810;SDS011;52468;40.116;18.296;2024-03-08T02:23:58;29.43;;;17.63;;
51810;SDS011;52468;40.116;18.296;2024-03-08T02:26:27;28.33;;;18.20;;
51810;SDS011;52468;40.116;18.296;2024-03-08T02:28:55;31.43;;;20.30;;
51810;SDS011;52468;40.116;18.296;2024-03-08T02:31:23;33.30;;;19.37;;
51810;SDS011;52468;40.116;18.296;2024-03-08T02:33:51;31.57;;;19.97;;
51810;SDS011;52468;40.116;18.296;2024-03-08T02:36:18;37.27;;;23.77;;
51810;SDS011;52468;40.116;18.296;2024-03-08T02:38:46;65.53;;;32.40;;
51810;SDS011;52468;40.116;18.296;2024-03-08T02:41:14;77.17;;;39.37;;
51810;SDS011;52468;40.116;18.296;2024-03-08T02:43:42;59.77;;;37.43;;
51810;SDS011;52468;40.116;18.296;2024-03-08T02:46:11;61.20;;;33.63;;
51810;SDS011;52468;40.116;18.296;2024-03-08T02:48:39;60.87;;;34.33;;
51810;SDS011;52468;40.116;18.296;2024-03-08T02:51:07;63.07;;;36.43;;
51810;SDS011;52468;40.116;18.296;2024-03-08T02:53:35;75.00;;;37.03;;
51810;SDS011;52468;40.116;18.296;2024-03-08T02:56:03;74.00;;;41.87;;
51810;SDS011;52468;40.116;18.296;2024-03-08T02:58:32;72.77;;;40.87;;
51810;SDS011;52468;40.116;18.296;2024-03-08T03:00:59;77.27;;;39.90;;
51810;SDS011;52468;40.116;18.296;2024-03-08T03:03:27;65.87;;;39.97;;
51810;SDS011;52468;40.116;18.296;2024-03-08T03:05:55;61.43;;;33.40;;
51810;SDS011;52468;40.116;18.296;2024-03-08T03:08:23;72.07;;;35.23;;
51810;SDS011;52468;40.116;18.296;2024-03-08T03:10:51;65.73;;;35.47;;
51810;SDS011;52468;40.116;18.296;2024-03-08T03:13:18;66.03;;;36.87;;
51810;SDS011;52468;40.116;18.296;2024-03-08T03:15:46;59.87;;;33.73;;
51810;SDS011;52468;40.116;18.296;2024-03-08T03:18:14;52.60;;;30.23;;
51810;SDS011;52468;40.116;18.296;2024-03-08T03:20:42;51.53;;;29.70;;
51810;SDS011;52468;40.116;18.296;2024-03-08T03:23:11;52.93;;;28.00;;
51810;SDS011;52468;40.116;18.296;2024-03-08T03:25:41;38.73;;;23.63;;
51810;SDS011;52468;40.116;18.296;2024-03-08T03:28:09;38.07;;;21.20;;
51810;SDS011;52468;40.116;18.296;2024-03-08T03:30:41;38.73;;;23.40;;
51810;SDS011;52468;40.116;18.296;2024-03-08T03:33:09;30.03;;;18.13;;
51810;SDS011;52468;40.116;18.296;2024-03-08T03:35:39;20.00;;;14.03;;
51810;SDS011;52468;40.116;18.296;2024-03-08T03:38:08;26.40;;;12.93;;
51810;SDS011;52468;40.116;18.296;2024-03-08T03:40:37;26.70;;;12.73;;
51810;SDS011;52468;40.116;18.296;2024-03-08T03:43:06;19.93;;;11.93;;
51810;SDS011;52468;40.116;18.296;2024-03-08T03:45:34;22.83;;;14.50;;
51810;SDS011;52468;40.116;18.296;2024-03-08T03:48:05;23.00;;;14.00;;
51810;SDS011;52468;40.116;18.296;2024-03-08T03:50:36;18.77;;;12.20;;
51810;SDS011;52468;40.116;18.296;2024-03-08T03:53:04;20.53;;;11.40;;
51810;SDS011;52468;40.116;18.296;2024-03-08T03:55:35;23.70;;;11.70;;
51810;SDS011;52468;40.116;18.296;2024-03-08T03:58:06;23.57;;;13.33;;
51810;SDS011;52468;40.116;18.296;2024-03-08T04:00:34;27.17;;;15.03;;
51810;SDS011;52468;40.116;18.296;2024-03-08T04:03:02;19.83;;;11.20;;
51810;SDS011;52468;40.116;18.296;2024-03-08T04:05:30;18.37;;;10.77;;
51810;SDS011;52468;40.116;18.296;2024-03-08T04:07:59;21.30;;;11.90;;
51810;SDS011;52468;40.116;18.296;2024-03-08T04:10:26;21.93;;;13.03;;
51810;SDS011;52468;40.116;18.296;2024-03-08T04:12:54;20.50;;;13.23;;
51810;SDS011;52468;40.116;18.296;2024-03-08T04:15:23;23.53;;;12.73;;
51810;SDS011;52468;40.116;18.296;2024-03-08T04:17:52;19.87;;;12.40;;
51810;SDS011;52468;40.116;18.296;2024-03-08T04:20:20;21.47;;;12.53;;
51810;SDS011;52468;40.116;18.296;2024-03-08T04:22:48;18.13;;;11.87;;
51810;SDS011;52468;40.116;18.296;2024-03-08T04:25:16;17.73;;;11.87;;
51810;SDS011;52468;40.116;18.296;2024-03-08T04:27:44;21.77;;;11.73;;
51810;SDS011;52468;40.116;18.296;2024-03-08T04:30:14;26.33;;;13.07;;
51810;SDS011;52468;40.116;18.296;2024-03-08T04:32:42;20.33;;;13.00;;
51810;SDS011;52468;40.116;18.296;2024-03-08T04:35:10;23.30;;;11.33;;
51810;SDS011;52468;40.116;18.296;2024-03-08T04:37:39;16.83;;;11.37;;
51810;SDS011;52468;40.116;18.296;2024-03-08T04:40:07;18.90;;;11.93;;
51810;SDS011;52468;40.116;18.296;2024-03-08T04:42:35;25.90;;;12.00;;
51810;SDS011;52468;40.116;18.296;2024-03-08T04:45:06;23.47;;;12.90;;
51810;SDS011;52468;40.116;18.296;2024-03-08T04:47:38;24.53;;;12.63;;
51810;SDS011;52468;40.116;18.296;2024-03-08T04:50:06;22.00;;;12.70;;
51810;SDS011;52468;40.116;18.296;2024-03-08T04:52:36;23.63;;;14.10;;
51810;SDS011;52468;40.116;18.296;2024-03-08T04:55:04;24.43;;;14.47;;
51810;SDS011;52468;40.116;18.296;2024-03-08T04:57:32;25.47;;;14.27;;
51810;SDS011;52468;40.116;18.296;2024-03-08T05:00:01;21.03;;;13.13;;
51810;SDS011;52468;40.116;18.296;2024-03-08T05:02:31;28.97;;;15.00;;
51810;SDS011;52468;40.116;18.296;2024-03-08T05:04:59;27.80;;;14.50;;
51810;SDS011;52468;40.116;18.296;2024-03-08T05:07:28;33.17;;;16.07;;
51810;SDS011;52468;40.116;18.296;2024-03-08T05:09:55;31.93;;;17.33;;
51810;SDS011;52468;40.116;18.296;2024-03-08T05:12:23;33.70;;;17.43;;
51810;SDS011;52468;40.116;18.296;2024-03-08T05:14:51;29.40;;;16.37;;
51810;SDS011;52468;40.116;18.296;2024-03-08T05:17:19;39.37;;;21.57;;
51810;SDS011;52468;40.116;18.296;2024-03-08T05:19:47;47.20;;;23.13;;
51810;SDS011;52468;40.116;18.296;2024-03-08T05:22:15;46.87;;;24.03;;
51810;SDS011;52468;40.116;18.296;2024-03-08T05:24:43;44.63;;;26.27;;
51810;SDS011;52468;40.116;18.296;2024-03-08T05:27:11;48.67;;;27.50;;
51810;SDS011;52468;40.116;18.296;2024-03-08T05:29:40;48.83;;;26.30;;
51810;SDS011;52468;40.116;18.296;2024-03-08T05:32:08;46.07;;;25.63;;
51810;SDS011;52468;40.116;18.296;2024-03-08T05:34:37;47.13;;;25.83;;
51810;SDS011;52468;40.116;18.296;2024-03-08T05:37:05;40.63;;;25.80;;
51810;SDS011;52468;40.116;18.296;2024-03-08T05:39:34;55.27;;;27.40;;
51810;SDS011;52468;40.116;18.296;2024-03-08T05:42:02;56.87;;;29.33;;
51810;SDS011;52468;40.116;18.296;2024-03-08T05:44:30;58.67;;;32.10;;
51810;SDS011;52468;40.116;18.296;2024-03-08T05:46:58;50.30;;;28.17;;
51810;SDS011;52468;40.116;18.296;2024-03-08T05:49:26;55.17;;;29.43;;
51810;SDS011;52468;40.116;18.296;2024-03-08T05:51:53;46.97;;;26.77;;
51810;SDS011;52468;40.116;18.296;2024-03-08T05:54:21;42.50;;;23.50;;
51810;SDS011;52468;40.116;18.296;2024-03-08T05:56:51;40.47;;;20.57;;
51810;SDS011;52468;40.116;18.296;2024-03-08T05:59:20;35.03;;;18.20;;
51810;SDS011;52468;40.116;18.296;2024-03-08T06:01:50;36.63;;;20.53;;
51810;SDS011;52468;40.116;18.296;2024-03-08T06:04:18;40.50;;;24.77;;
51810;SDS011;52468;40.116;18.296;2024-03-08T06:06:46;42.87;;;27.27;;
51810;SDS011;52468;40.116;18.296;2024-03-08T06:09:16;34.10;;;21.00;;
51810;SDS011;52468;40.116;18.296;2024-03-08T06:11:44;38.40;;;20.30;;
51810;SDS011;52468;40.116;18.296;2024-03-08T06:14:12;30.43;;;16.97;;
51810;SDS011;52468;40.116;18.296;2024-03-08T06:16:40;34.63;;;16.50;;
51810;SDS011;52468;40.116;18.296;2024-03-08T06:19:08;27.00;;;14.70;;
51810;SDS011;52468;40.116;18.296;2024-03-08T06:21:35;27.80;;;15.43;;
51810;SDS011;52468;40.116;18.296;2024-03-08T06:24:03;29.53;;;15.23;;
51810;SDS011;52468;40.116;18.296;2024-03-08T06:26:31;26.03;;;15.90;;
51810;SDS011;52468;40.116;18.296;2024-03-08T06:28:59;24.03;;;14.37;;
51810;SDS011;52468;40.116;18.296;2024-03-08T06:31:27;30.43;;;15.93;;
51810;SDS011;52468;40.116;18.296;2024-03-08T06:33:55;23.10;;;14.30;;
51810;SDS011;52468;40.116;18.296;2024-03-08T06:36:23;25.70;;;13.53;;
51810;SDS011;52468;40.116;18.296;2024-03-08T06:38:51;22.23;;;12.30;;
51810;SDS011;52468;40.116;18.296;2024-03-08T06:41:19;20.07;;;11.20;;
51810;SDS011;52468;40.116;18.296;2024-03-08T06:43:47;24.67;;;13.00;;
51810;SDS011;52468;40.116;18.296;2024-03-08T06:46:19;22.30;;;11.87;;
51810;SDS011;52468;40.116;18.296;2024-03-08T06:48:47;19.73;;;11.27;;
51810;SDS011;52468;40.116;18.296;2024-03-08T06:51:17;19.60;;;11.37;;
51810;SDS011;52468;40.116;18.296;2024-03-08T06:53:45;18.77;;;12.40;;
51810;SDS011;52468;40.116;18.296;2024-03-08T06:56:13;17.97;;;11.60;;
51810;SDS011;52468;40.116;18.296;2024-03-08T06:58:40;17.77;;;9.93;;
51810;SDS011;52468;40.116;18.296;2024-03-08T07:01:09;18.03;;;9.40;;
51810;SDS011;52468;40.116;18.296;2024-03-08T07:03:41;14.97;;;9.30;;
51810;SDS011;52468;40.116;18.296;2024-03-08T07:06:11;18.77;;;9.47;;
51810;SDS011;52468;40.116;18.296;2024-03-08T07:08:39;17.47;;;8.47;;
51810;SDS011;52468;40.116;18.296;2024-03-08T07:11:07;13.30;;;7.73;;
51810;SDS011;52468;40.116;18.296;2024-03-08T07:13:35;14.77;;;7.03;;
51810;SDS011;52468;40.116;18.296;2024-03-08T07:16:03;9.80;;;5.53;;
51810;SDS011;52468;40.116;18.296;2024-03-08T07:18:31;8.67;;;5.80;;
51810;SDS011;52468;40.116;18.296;2024-03-08T07:20:58;6.10;;;3.87;;
51810;SDS011;52468;40.116;18.296;2024-03-08T07:23:26;11.67;;;4.97;;
51810;SDS011;52468;40.116;18.296;2024-03-08T07:26:15;7.33;;;4.30;;
51810;SDS011;52468;40.116;18.296;2024-03-08T07:28:44;9.70;;;5.53;;
51810;SDS011;52468;40.116;18.296;2024-03-08T07:31:11;7.57;;;3.80;;
51810;SDS011;52468;40.116;18.296;2024-03-08T07:33:39;8.03;;;4.50;;
51810;SDS011;52468;40.116;18.296;2024-03-08T07:36:07;9.43;;;3.87;;
51810;SDS011;52468;40.116;18.296;2024-03-08T07:38:35;8.77;;;4.00;;
51810;SDS011;52468;40.116;18.296;2024-03-08T07:41:04;7.27;;;4.10;;
51810;SDS011;52468;40.116;18.296;2024-03-08T07:43:32;8.03;;;2.83;;
51810;SDS011;52468;40.116;18.296;2024-03-08T07:46:00;4.57;;;2.83;;
51810;SDS011;52468;40.116;18.296;2024-03-08T07:48:28;4.83;;;2.20;;
51810;SDS011;52468;40.116;18.296;2024-03-08T07:50:57;5.50;;;2.70;;
51810;SDS011;52468;40.116;18.296;2024-03-08T07:53:25;3.97;;;2.27;;
51810;SDS011;52468;40.116;18.296;2024-03-08T07:55:53;6.27;;;2.97;;
51810;SDS011;52468;40.116;18.296;2024-03-08T07:58:21;4.57;;;1.97;;
51810;SDS011;52468;40.116;18.296;2024-03-08T08:00:50;3.20;;;1.90;;
51810;SDS011;52468;40.116;18.296;2024-03-08T08:03:18;3.20;;;2.10;;
51810;SDS011;52468;40.116;18.296;2024-03-08T08:05:48;5.00;;;1.90;;
51810;SDS011;52468;40.116;18.296;2024-03-08T08:08:16;1.83;;;1.37;;
51810;SDS011;52468;40.116;18.296;2024-03-08T08:10:44;3.73;;;1.13;;
51810;SDS011;52468;40.116;18.296;2024-03-08T08:13:11;3.73;;;1.10;;
51810;SDS011;52468;40.116;18.296;2024-03-08T08:15:40;3.17;;;1.40;;
51810;SDS011;52468;40.116;18.296;2024-03-08T08:18:07;1.87;;;1.33;;
51810;SDS011;52468;40.116;18.296;2024-03-08T08:20:37;6.57;;;1.40;;
51810;SDS011;52468;40.116;18.296;2024-03-08T08:23:04;1.63;;;1.47;;
51810;SDS011;52468;40.116;18.296;2024-03-08T08:25:33;2.07;;;0.80;;
51810;SDS011;52468;40.116;18.296;2024-03-08T08:28:01;1.73;;;1.10;;
51810;SDS011;52468;40.116;18.296;2024-03-08T08:30:31;2.50;;;1.33;;
51810;SDS011;52468;40.116;18.296;2024-03-08T08:33:00;3.90;;;1.13;;
51810;SDS011;52468;40.116;18.296;2024-03-08T08:35:28;2.07;;;1.20;;
51810;SDS011;52468;40.116;18.296;2024-03-08T08:37:56;1.70;;;1.03;;
51810;SDS011;52468;40.116;18.296;2024-03-08T08:40:26;2.93;;;1.30;;
51810;SDS011;52468;40.116;18.296;2024-03-08T08:42:54;6.67;;;2.37;;
51810;SDS011;52468;40.116;18.296;2024-03-08T08:45:25;2.23;;;1.30;;
51810;SDS011;52468;40.116;18.296;2024-03-08T08:47:53;1.30;;;0.90;;
51810;SDS011;52468;40.116;18.296;2024-03-08T08:50:22;1.33;;;1.10;;
51810;SDS011;52468;40.116;18.296;2024-03-08T08:52:50;3.37;;;1.33;;
51810;SDS011;52468;40.116;18.296;2024-03-08T08:55:18;1.10;;;0.70;;
51810;SDS011;52468;40.116;18.296;2024-03-08T08:57:52;1.53;;;0.80;;
51810;SDS011;52468;40.116;18.296;2024-03-08T09:00:20;1.93;;;1.30;;
51810;SDS011;52468;40.116;18.296;2024-03-08T09:02:51;4.53;;;0.90;;
51810;SDS011;52468;40.116;18.296;2024-03-08T09:05:19;5.73;;;1.33;;
51810;SDS011;52468;40.116;18.296;2024-03-08T09:07:48;1.40;;;0.83;;
51810;SDS011;52468;40.116;18.296;2024-03-08T09:10:17;3.23;;;1.00;;
51810;SDS011;52468;40.116;18.296;2024-03-08T09:12:46;2.27;;;1.10;;
51810;SDS011;52468;40.116;18.296;2024-03-08T09:15:14;1.60;;;1.50;;
51810;SDS011;52468;40.116;18.296;2024-03-08T09:17:45;4.10;;;0.80;;
51810;SDS011;52468;40.116;18.296;2024-03-08T09:20:12;0.47;;;0.33;;
51810;SDS011;52468;40.116;18.296;2024-03-08T09:22:44;5.00;;;0.63;;
51810;SDS011;52468;40.116;18.296;2024-03-08T09:25:13;0.70;;;0.40;;
51810;SDS011;52468;40.116;18.296;2024-03-08T09:27:41;1.57;;;0.80;;
51810;SDS011;52468;40.116;18.296;2024-03-08T09:30:09;0.60;;;0.43;;
51810;SDS011;52468;40.116;18.296;2024-03-08T09:32:40;4.00;;;0.50;;
51810;SDS011;52468;40.116;18.296;2024-03-08T09:35:08;2.23;;;0.70;;
51810;SDS011;52468;40.116;18.296;2024-03-08T09:37:38;0.57;;;0.57;;
51810;SDS011;52468;40.116;18.296;2024-03-08T09:40:06;1.90;;;0.37;;
51810;SDS011;52468;40.116;18.296;2024-03-08T09:42:37;0.43;;;0.30;;
51810;SDS011;52468;40.116;18.296;2024-03-08T09:45:09;1.60;;;0.50;;
51810;SDS011;52468;40.116;18.296;2024-03-08T09:47:41;1.67;;;0.47;;
51810;SDS011;52468;40.116;18.296;2024-03-08T09:50:10;1.87;;;0.60;;
51810;SDS011;52468;40.116;18.296;2024-03-08T09:52:40;0.67;;;0.60;;
51810;SDS011;52468;40.116;18.296;2024-03-08T09:55:10;0.63;;;0.50;;
51810;SDS011;52468;40.116;18.296;2024-03-08T09:57:41;0.60;;;0.60;;
51810;SDS011;52468;40.116;18.296;2024-03-08T10:00:30;1.40;;;0.60;;
51810;SDS011;52468;40.116;18.296;2024-03-08T10:03:02;2.53;;;0.63;;
51810;SDS011;52468;40.116;18.296;2024-03-08T10:05:30;0.70;;;0.60;;
51810;SDS011;52468;40.116;18.296;2024-03-08T10:08:00;1.37;;;0.60;;
51810;SDS011;52468;40.116;18.296;2024-03-08T10:10:40;1.60;;;0.70;;
51810;SDS011;52468;40.116;18.296;2024-03-08T10:13:09;1.37;;;0.77;;
51810;SDS011;52468;40.116;18.296;2024-03-08T10:15:42;2.50;;;0.82;;
51810;SDS011;52468;40.116;18.296;2024-03-08T10:18:10;0.83;;;0.60;;
51810;SDS011;52468;40.116;18.296;2024-03-08T10:20:41;2.03;;;1.00;;
51810;SDS011;52468;40.116;18.296;2024-03-08T10:23:16;2.73;;;0.93;;
51810;SDS011;52468;40.116;18.296;2024-03-08T10:25:57;1.07;;;0.63;;
51810;SDS011;52468;40.116;18.296;2024-03-08T10:28:38;1.03;;;0.60;;
51810;SDS011;52468;40.116;18.296;2024-03-08T10:31:11;1.33;;;0.75;;
51810;SDS011;52468;40.116;18.296;2024-03-08T10:33:47;1.33;;;0.90;;
51810;SDS011;52468;40.116;18.296;2024-03-08T10:36:23;0.90;;;0.90;;
51810;SDS011;52468;40.116;18.296;2024-03-08T10:38:52;2.00;;;1.27;;
51810;SDS011;52468;40.116;18.296;2024-03-08T10:41:38;1.90;;;1.13;;
51810;SDS011;52468;40.116;18.296;2024-03-08T10:44:21;1.77;;;1.20;;
51810;SDS011;52468;40.116;18.296;2024-03-08T10:47:02;7.23;;;4.63;;
51810;SDS011;52468;40.116;18.296;2024-03-08T10:49:59;4.90;;;2.37;;
51810;SDS011;52468;40.116;18.296;2024-03-08T10:52:55;3.10;;;1.80;;
51810;SDS011;52468;40.116;18.296;2024-03-08T10:55:27;2.23;;;1.30;;
51810;SDS011;52468;40.116;18.296;2024-03-08T10:58:02;1.80;;;1.17;;
51810;SDS011;52468;40.116;18.296;2024-03-08T11:00:39;2.30;;;0.90;;
51810;SDS011;52468;40.116;18.296;2024-03-08T11:06:18;3.63;;;1.93;;
51810;SDS011;52468;40.116;18.296;2024-03-08T11:09:33;3.20;;;2.37;;
51810;SDS011;52468;40.116;18.296;2024-03-08T11:14:55;3.60;;;1.20;;
51810;SDS011;52468;40.116;18.296;2024-03-08T11:20:01;4.20;;;1.73;;
51810;SDS011;52468;40.116;18.296;2024-03-08T11:22:35;1.97;;;1.50;;
51810;SDS011;52468;40.116;18.296;2024-03-08T11:25:37;1.43;;;1.03;;
51810;SDS011;52468;40.116;18.296;2024-03-08T11:28:19;1.53;;;1.10;;
51810;SDS011;52468;40.116;18.296;2024-03-08T11:33:31;1.20;;;1.10;;
51810;SDS011;52468;40.116;18.296;2024-03-08T11:36:12;5.87;;;3.00;;
51810;SDS011;52468;40.116;18.296;2024-03-08T11:39:03;2.60;;;1.80;;
51810;SDS011;52468;40.116;18.296;2024-03-08T11:41:44;1.33;;;1.20;;
51810;SDS011;52468;40.116;18.296;2024-03-08T11:44:20;1.93;;;1.60;;
51810;SDS011;52468;40.116;18.296;2024-03-08T11:47:02;3.67;;;3.37;;
51810;SDS011;52468;40.116;18.296;2024-03-08T11:49:35;3.30;;;2.72;;
51810;SDS011;52468;40.116;18.296;2024-03-08T11:52:03;1.73;;;1.40;;
51810;SDS011;52468;40.116;18.296;2024-03-08T11:54:36;1.80;;;1.70;;
51810;SDS011;52468;40.116;18.296;2024-03-08T11:57:07;1.87;;;1.50;;
51810;SDS011;52468;40.116;18.296;2024-03-08T11:59:37;3.83;;;0.90;;
51810;SDS011;52468;40.116;18.296;2024-03-08T12:02:11;2.43;;;1.27;;
51810;SDS011;52468;40.116;18.296;2024-03-08T12:04:39;1.83;;;1.23;;
51810;SDS011;52468;40.116;18.296;2024-03-08T12:07:09;7.37;;;5.73;;
51810;SDS011;52468;40.116;18.296;2024-03-08T12:10:13;4.10;;;2.90;;
51810;SDS011;52468;40.116;18.296;2024-03-08T12:12:52;2.00;;;1.43;;
51810;SDS011;52468;40.116;18.296;2024-03-08T12:15:23;2.70;;;2.33;;
51810;SDS011;52468;40.116;18.296;2024-03-08T12:18:02;3.77;;;2.97;;
51810;SDS011;52468;40.116;18.296;2024-03-08T12:20:45;1.40;;;1.15;;
51810;SDS011;52468;40.116;18.296;2024-03-08T12:23:19;3.67;;;2.90;;
51810;SDS011;52468;40.116;18.296;2024-03-08T12:25:49;4.47;;;3.03;;
51810;SDS011;52468;40.116;18.296;2024-03-08T12:28:20;3.77;;;3.17;;
51810;SDS011;52468;40.116;18.296;2024-03-08T12:30:52;2.10;;;1.27;;
51810;SDS011;52468;40.116;18.296;2024-03-08T12:33:26;1.50;;;1.10;;
51810;SDS011;52468;40.116;18.296;2024-03-08T12:35:55;1.73;;;1.30;;
51810;SDS011;52468;40.116;18.296;2024-03-08T12:38:27;2.25;;;2.05;;
51810;SDS011;52468;40.116;18.296;2024-03-08T12:40:58;2.13;;;1.53;;
51810;SDS011;52468;40.116;18.296;2024-03-08T12:43:27;1.20;;;1.10;;
51810;SDS011;52468;40.116;18.296;2024-03-08T12:46:02;1.80;;;0.90;;
51810;SDS011;52468;40.116;18.296;2024-03-08T12:48:36;2.67;;;1.07;;
51810;SDS011;52468;40.116;18.296;2024-03-08T12:51:13;5.47;;;3.30;;
51810;SDS011;52468;40.116;18.296;2024-03-08T12:53:45;5.35;;;3.72;;
51810;SDS011;52468;40.116;18.296;2024-03-08T12:56:20;8.40;;;5.03;;
51810;SDS011;52468;40.116;18.296;2024-03-08T12:58:59;4.40;;;3.00;;
51810;SDS011;52468;40.116;18.296;2024-03-08T13:01:33;2.40;;;1.77;;
51810;SDS011;52468;40.116;18.296;2024-03-08T13:04:07;2.10;;;1.10;;
51810;SDS011;52468;40.116;18.296;2024-03-08T13:06:44;4.20;;;2.90;;
51810;SDS011;52468;40.116;18.296;2024-03-08T13:09:27;4.20;;;2.33;;
51810;SDS011;52468;40.116;18.296;2024-03-08T13:12:04;3.87;;;1.93;;
51810;SDS011;52468;40.116;18.296;2024-03-08T13:14:33;6.70;;;5.57;;
51810;SDS011;52468;40.116;18.296;2024-03-08T13:17:05;4.20;;;3.30;;
51810;SDS011;52468;40.116;18.296;2024-03-08T13:19:40;5.60;;;5.10;;
51810;SDS011;52468;40.116;18.296;2024-03-08T13:22:21;4.43;;;3.40;;
51810;SDS011;52468;40.116;18.296;2024-03-08T13:24:50;5.80;;;2.53;;
51810;SDS011;52468;40.116;18.296;2024-03-08T13:27:27;7.00;;;4.00;;
51810;SDS011;52468;40.116;18.296;2024-03-08T13:29:57;3.03;;;1.80;;
51810;SDS011;52468;40.116;18.296;2024-03-08T13:32:29;2.90;;;1.90;;
51810;SDS011;52468;40.116;18.296;2024-03-08T13:35:00;2.07;;;1.27;;
51810;SDS011;52468;40.116;18.296;2024-03-08T13:37:29;2.67;;;1.20;;
51810;SDS011;52468;40.116;18.296;2024-03-08T13:39:59;4.07;;;2.03;;
51810;SDS011;52468;40.116;18.296;2024-03-08T13:42:30;3.10;;;1.97;;
51810;SDS011;52468;40.116;18.296;2024-03-08T13:45:02;3.67;;;0.73;;
51810;SDS011;52468;40.116;18.296;2024-03-08T13:47:31;17.07;;;13.30;;
51810;SDS011;52468;40.116;18.296;2024-03-08T13:50:04;10.10;;;5.47;;
51810;SDS011;52468;40.116;18.296;2024-03-08T13:52:39;6.30;;;4.00;;
51810;SDS011;52468;40.116;18.296;2024-03-08T13:55:10;3.00;;;1.60;;
51810;SDS011;52468;40.116;18.296;2024-03-08T13:57:42;1.73;;;0.70;;
51810;SDS011;52468;40.116;18.296;2024-03-08T14:00:17;1.17;;;0.50;;
51810;SDS011;52468;40.116;18.296;2024-03-08T14:02:51;1.80;;;0.80;;
51810;SDS011;52468;40.116;18.296;2024-03-08T14:05:23;4.13;;;2.60;;
51810;SDS011;52468;40.116;18.296;2024-03-08T14:07:51;1.37;;;0.77;;
51810;SDS011;52468;40.116;18.296;2024-03-08T14:10:24;4.95;;;1.70;;
51810;SDS011;52468;40.116;18.296;2024-03-08T14:12:53;2.80;;;1.10;;
51810;SDS011;52468;40.116;18.296;2024-03-08T14:15:25;0.85;;;0.55;;
51810;SDS011;52468;40.116;18.296;2024-03-08T14:17:54;4.10;;;1.97;;
51810;SDS011;52468;40.116;18.296;2024-03-08T14:20:29;5.20;;;3.37;;
51810;SDS011;52468;40.116;18.296;2024-03-08T14:23:00;2.37;;;1.73;;
51810;SDS011;52468;40.116;18.296;2024-03-08T14:25:34;1.67;;;0.90;;
51810;SDS011;52468;40.116;18.296;2024-03-08T14:28:02;0.90;;;0.83;;
51810;SDS011;52468;40.116;18.296;2024-03-08T14:30:34;3.80;;;1.10;;
51810;SDS011;52468;40.116;18.296;2024-03-08T14:33:07;10.25;;;9.18;;
51810;SDS011;52468;40.116;18.296;2024-03-08T14:35:57;4.30;;;1.73;;
51810;SDS011;52468;40.116;18.296;2024-03-08T14:38:24;2.20;;;1.10;;
51810;SDS011;52468;40.116;18.296;2024-03-08T14:40:56;1.20;;;0.80;;
51810;SDS011;52468;40.116;18.296;2024-03-08T14:43:29;1.13;;;0.98;;
51810;SDS011;52468;40.116;18.296;2024-03-08T14:46:11;3.13;;;1.27;;
51810;SDS011;52468;40.116;18.296;2024-03-08T14:48:47;2.20;;;1.10;;
51810;SDS011;52468;40.116;18.296;2024-03-08T14:51:16;1.40;;;1.10;;
51810;SDS011;52468;40.116;18.296;2024-03-08T14:53:49;1.20;;;0.90;;